Raritan, Illinois
Current Conditions -  °F | °C
As of 12:35 AM on Tuesday 21 Oct 2014 (Local Time) from KMQB Reporting Station
Clear Clear  
Wind Chill: 42°   Ceiling: Unl
Heat Index: 46°   Visibility: 10mi
Dew Point: 41°   Wind: 7mph
Humidity: 84%   Direction: 350°N
Pressure: 30.04"   Gusts: NA
Location:  40.7°N, 90.83°W
Report Text: KMQB 210535Z AUTO 35006KT 10SM CLR 08/05 A3004 RMK AO2 T00760051
Loading
Personal Weather Stations






























Interactive Weather Map
Tropical Storm Tracking
New forecast layout! Learn more

10-Day Weather Forecast

Advertisements
Track Severe Weather on mobile